sensor_id;sensor_type;location;lat;lon;timestamp;pressure;altitude;pressure_sealevel;temperature;humidity
11268;BME280;49397;47.474;9.416;2023-08-01T00:01:24;94775.38;;;19.85;59.06
11268;BME280;49397;47.474;9.416;2023-08-01T00:03:50;94761.00;;;19.78;60.46
11268;BME280;49397;47.474;9.416;2023-08-01T00:06:15;94760.69;;;19.90;57.49
11268;BME280;49397;47.474;9.416;2023-08-01T00:08:40;94763.75;;;19.88;59.63
11268;BME280;49397;47.474;9.416;2023-08-01T00:11:06;94749.03;;;19.89;57.86
11268;BME280;49397;47.474;9.416;2023-08-01T00:13:31;94749.03;;;19.89;59.24
11268;BME280;49397;47.474;9.416;2023-08-01T00:15:56;94733.16;;;19.91;59.89
11268;BME280;49397;47.474;9.416;2023-08-01T00:18:22;94724.66;;;19.96;59.26
11268;BME280;49397;47.474;9.416;2023-08-01T00:20:47;94723.50;;;20.01;56.83
11268;BME280;49397;47.474;9.416;2023-08-01T00:23:13;94727.00;;;20.05;57.50
11268;BME280;49397;47.474;9.416;2023-08-01T00:25:38;94716.91;;;19.98;60.36
11268;BME280;49397;47.474;9.416;2023-08-01T00:28:04;94716.53;;;20.00;59.68
11268;BME280;49397;47.474;9.416;2023-08-01T00:30:29;94710.69;;;19.94;60.25
11268;BME280;49397;47.474;9.416;2023-08-01T00:32:55;94701.00;;;19.90;59.69
11268;BME280;49397;47.474;9.416;2023-08-01T00:35:20;94694.41;;;19.87;60.75
11268;BME280;49397;47.474;9.416;2023-08-01T00:37:46;94694.00;;;19.85;59.49
11268;BME280;49397;47.474;9.416;2023-08-01T00:40:11;94689.00;;;19.87;59.71
11268;BME280;49397;47.474;9.416;2023-08-01T00:42:37;94675.03;;;19.89;57.47
11268;BME280;49397;47.474;9.416;2023-08-01T00:45:04;94668.47;;;19.93;56.57
11268;BME280;49397;47.474;9.416;2023-08-01T00:47:29;94656.50;;;20.16;55.02
11268;BME280;49397;47.474;9.416;2023-08-01T00:49:55;94648.78;;;20.28;54.08
11268;BME280;49397;47.474;9.416;2023-08-01T00:52:21;94644.13;;;20.29;55.21
11268;BME280;49397;47.474;9.416;2023-08-01T00:54:47;94640.66;;;20.39;53.80
11268;BME280;49397;47.474;9.416;2023-08-01T00:57:12;94634.03;;;20.36;54.80
11268;BME280;49397;47.474;9.416;2023-08-01T00:59:38;94637.94;;;20.35;54.98
11268;BME280;49397;47.474;9.416;2023-08-01T01:02:03;94629.00;;;20.35;54.80
11268;BME280;49397;47.474;9.416;2023-08-01T01:04:29;94629.38;;;20.33;54.66
11268;BME280;49397;47.474;9.416;2023-08-01T01:07:03;94626.69;;;20.37;54.61
11268;BME280;49397;47.474;9.416;2023-08-01T01:09:30;94629.00;;;20.35;55.01
11268;BME280;49397;47.474;9.416;2023-08-01T01:11:57;94614.28;;;20.32;55.52
11268;BME280;49397;47.474;9.416;2023-08-01T01:14:23;94615.06;;;20.29;56.21
11268;BME280;49397;47.474;9.416;2023-08-01T01:16:48;94602.63;;;20.25;58.28
11268;BME280;49397;47.474;9.416;2023-08-01T01:19:14;94596.81;;;20.19;58.19
11268;BME280;49397;47.474;9.416;2023-08-01T01:21:40;94595.25;;;20.18;57.87
11268;BME280;49397;47.474;9.416;2023-08-01T01:24:09;94587.16;;;20.32;55.05
11268;BME280;49397;47.474;9.416;2023-08-01T01:26:35;94591.78;;;20.28;55.20
11268;BME280;49397;47.474;9.416;2023-08-01T01:29:03;94580.16;;;20.31;56.36
11268;BME280;49397;47.474;9.416;2023-08-01T01:31:30;94577.81;;;20.23;57.10
11268;BME280;49397;47.474;9.416;2023-08-01T01:33:57;94580.16;;;20.10;60.63
11268;BME280;49397;47.474;9.416;2023-08-01T01:36:22;94575.84;;;19.95;60.88
11268;BME280;49397;47.474;9.416;2023-08-01T01:38:48;94570.81;;;19.86;59.97
11268;BME280;49397;47.474;9.416;2023-08-01T01:41:13;94566.56;;;19.85;58.69
11268;BME280;49397;47.474;9.416;2023-08-01T01:43:39;94560.38;;;19.99;57.08
11268;BME280;49397;47.474;9.416;2023-08-01T01:46:04;94564.25;;;20.16;55.37
11268;BME280;49397;47.474;9.416;2023-08-01T01:48:29;94570.06;;;20.18;55.93
11268;BME280;49397;47.474;9.416;2023-08-01T01:50:55;94572.00;;;20.21;55.48
11268;BME280;49397;47.474;9.416;2023-08-01T01:53:20;94557.25;;;20.22;54.66
11268;BME280;49397;47.474;9.416;2023-08-01T01:55:45;94550.31;;;20.28;54.86
11268;BME280;49397;47.474;9.416;2023-08-01T01:58:11;94545.25;;;20.40;53.17
11268;BME280;49397;47.474;9.416;2023-08-01T02:00:36;94541.75;;;20.50;53.33
11268;BME280;49397;47.474;9.416;2023-08-01T02:03:02;94544.47;;;20.54;53.13
11268;BME280;49397;47.474;9.416;2023-08-01T02:05:29;94540.56;;;20.58;53.30
11268;BME280;49397;47.474;9.416;2023-08-01T02:07:54;94536.31;;;20.57;53.73
11268;BME280;49397;47.474;9.416;2023-08-01T02:10:19;94541.75;;;20.57;53.30
11268;BME280;49397;47.474;9.416;2023-08-01T02:12:45;94534.75;;;20.56;53.71
11268;BME280;49397;47.474;9.416;2023-08-01T02:15:10;94541.34;;;20.52;53.70
11268;BME280;49397;47.474;9.416;2023-08-01T02:17:35;94533.97;;;20.49;54.01
11268;BME280;49397;47.474;9.416;2023-08-01T02:20:01;94540.97;;;20.50;54.16
11268;BME280;49397;47.474;9.416;2023-08-01T02:22:26;94543.31;;;20.51;53.52
11268;BME280;49397;47.474;9.416;2023-08-01T02:24:52;94546.78;;;20.52;54.05
11268;BME280;49397;47.474;9.416;2023-08-01T02:27:18;94539.41;;;20.59;54.27
11268;BME280;49397;47.474;9.416;2023-08-01T02:29:43;94547.97;;;20.47;54.93
11268;BME280;49397;47.474;9.416;2023-08-01T02:32:09;94551.06;;;20.46;55.10
11268;BME280;49397;47.474;9.416;2023-08-01T02:34:35;94540.22;;;20.39;55.45
11268;BME280;49397;47.474;9.416;2023-08-01T02:37:00;94536.34;;;20.26;56.85
11268;BME280;49397;47.474;9.416;2023-08-01T02:39:26;94537.91;;;20.16;57.65
11268;BME280;49397;47.474;9.416;2023-08-01T02:41:51;94535.19;;;20.09;59.39
11268;BME280;49397;47.474;9.416;2023-08-01T02:44:16;94531.69;;;20.16;57.94
11268;BME280;49397;47.474;9.416;2023-08-01T02:46:42;94522.00;;;20.15;57.96
11268;BME280;49397;47.474;9.416;2023-08-01T02:49:07;94522.41;;;20.31;56.64
11268;BME280;49397;47.474;9.416;2023-08-01T02:51:32;94525.50;;;20.22;57.28
11268;BME280;49397;47.474;9.416;2023-08-01T02:53:58;94532.84;;;20.22;57.34
11268;BME280;49397;47.474;9.416;2023-08-01T02:56:23;94537.91;;;20.16;57.59
11268;BME280;49397;47.474;9.416;2023-08-01T02:58:48;94533.22;;;20.17;57.17
11268;BME280;49397;47.474;9.416;2023-08-01T03:01:14;94537.91;;;20.13;57.44
11268;BME280;49397;47.474;9.416;2023-08-01T03:03:39;94544.09;;;20.13;57.70
11268;BME280;49397;47.474;9.416;2023-08-01T03:06:05;94545.63;;;20.18;57.14
11268;BME280;49397;47.474;9.416;2023-08-01T03:08:30;94541.38;;;20.13;57.34
11268;BME280;49397;47.474;9.416;2023-08-01T03:10:55;94537.13;;;20.16;57.52
11268;BME280;49397;47.474;9.416;2023-08-01T03:13:22;94544.84;;;20.21;57.03
11268;BME280;49397;47.474;9.416;2023-08-01T03:15:47;94544.84;;;20.17;57.82
11268;BME280;49397;47.474;9.416;2023-08-01T03:18:12;94553.78;;;20.18;58.03
11268;BME280;49397;47.474;9.416;2023-08-01T03:20:38;94560.75;;;20.15;58.05
11268;BME280;49397;47.474;9.416;2023-08-01T03:23:03;94562.31;;;20.27;56.67
11268;BME280;49397;47.474;9.416;2023-08-01T03:25:29;94541.38;;;20.34;56.99
11268;BME280;49397;47.474;9.416;2023-08-01T03:27:56;94554.94;;;20.24;58.43
11268;BME280;49397;47.474;9.416;2023-08-01T03:30:21;94557.63;;;20.17;59.04
11268;BME280;49397;47.474;9.416;2023-08-01T03:32:47;94550.31;;;20.28;57.78
11268;BME280;49397;47.474;9.416;2023-08-01T03:35:12;94563.47;;;20.36;58.58
11268;BME280;49397;47.474;9.416;2023-08-01T03:37:41;94570.47;;;20.37;57.90
11268;BME280;49397;47.474;9.416;2023-08-01T03:40:07;94572.41;;;20.33;58.07
11268;BME280;49397;47.474;9.416;2023-08-01T03:42:36;94577.44;;;20.28;58.55
11268;BME280;49397;47.474;9.416;2023-08-01T03:45:02;94575.09;;;20.19;59.47
11268;BME280;49397;47.474;9.416;2023-08-01T03:47:27;94583.63;;;20.14;60.02
11268;BME280;49397;47.474;9.416;2023-08-01T03:49:53;94597.97;;;20.15;59.75
11268;BME280;49397;47.474;9.416;2023-08-01T03:52:18;94596.00;;;20.04;60.62
11268;BME280;49397;47.474;9.416;2023-08-01T03:54:44;94583.63;;;20.00;61.16
11268;BME280;49397;47.474;9.416;2023-08-01T03:57:09;94585.16;;;20.08;59.99
11268;BME280;49397;47.474;9.416;2023-08-01T03:59:35;94575.09;;;20.16;58.63
11268;BME280;49397;47.474;9.416;2023-08-01T04:02:01;94580.53;;;20.12;59.35
11268;BME280;49397;47.474;9.416;2023-08-01T04:04:26;94593.72;;;20.10;58.81
11268;BME280;49397;47.474;9.416;2023-08-01T04:06:51;94586.34;;;20.21;58.75
11268;BME280;49397;47.474;9.416;2023-08-01T04:09:17;94586.75;;;20.20;58.65
11268;BME280;49397;47.474;9.416;2023-08-01T04:11:42;94594.47;;;20.18;59.08
11268;BME280;49397;47.474;9.416;2023-08-01T04:14:08;94594.47;;;20.14;59.75
11268;BME280;49397;47.474;9.416;2023-08-01T04:16:34;94596.81;;;20.08;59.44
11268;BME280;49397;47.474;9.416;2023-08-01T04:18:59;94592.94;;;20.10;59.45
11268;BME280;49397;47.474;9.416;2023-08-01T04:21:24;94601.47;;;20.19;58.12
11268;BME280;49397;47.474;9.416;2023-08-01T04:23:50;94605.72;;;20.20;58.27
11268;BME280;49397;47.474;9.416;2023-08-01T04:26:15;94607.66;;;20.19;58.82
11268;BME280;49397;47.474;9.416;2023-08-01T04:28:40;94608.44;;;20.20;58.45
11268;BME280;49397;47.474;9.416;2023-08-01T04:31:06;94603.00;;;20.16;59.17
11268;BME280;49397;47.474;9.416;2023-08-01T04:33:31;94602.22;;;20.16;59.48
11268;BME280;49397;47.474;9.416;2023-08-01T04:35:56;94599.50;;;20.12;59.31
11268;BME280;49397;47.474;9.416;2023-08-01T04:38:22;94592.91;;;20.20;58.93
11268;BME280;49397;47.474;9.416;2023-08-01T04:40:47;94592.91;;;20.20;59.11
11268;BME280;49397;47.474;9.416;2023-08-01T04:43:13;94584.41;;;20.15;59.19
11268;BME280;49397;47.474;9.416;2023-08-01T04:45:38;94589.44;;;20.13;60.77
11268;BME280;49397;47.474;9.416;2023-08-01T04:48:04;94596.00;;;20.04;59.97
11268;BME280;49397;47.474;9.416;2023-08-01T04:50:29;94609.19;;;19.99;61.37
11268;BME280;49397;47.474;9.416;2023-08-01T04:52:55;94606.09;;;19.90;61.29
11268;BME280;49397;47.474;9.416;2023-08-01T04:55:20;94606.84;;;19.87;61.76
11268;BME280;49397;47.474;9.416;2023-08-01T04:57:45;94612.25;;;19.80;61.57
11268;BME280;49397;47.474;9.416;2023-08-01T05:00:11;94610.31;;;19.77;62.67
11268;BME280;49397;47.474;9.416;2023-08-01T05:02:37;94616.13;;;19.75;64.01
11268;BME280;49397;47.474;9.416;2023-08-01T05:05:02;94630.81;;;19.67;63.34
11268;BME280;49397;47.474;9.416;2023-08-01T05:07:29;94616.47;;;19.63;65.14
11268;BME280;49397;47.474;9.416;2023-08-01T05:09:54;94609.50;;;19.55;66.24
11268;BME280;49397;47.474;9.416;2023-08-01T05:12:20;94620.69;;;19.50;65.46
11268;BME280;49397;47.474;9.416;2023-08-01T05:14:45;94621.47;;;19.47;67.15
11268;BME280;49397;47.474;9.416;2023-08-01T05:17:11;94615.66;;;19.45;69.47
11268;BME280;49397;47.474;9.416;2023-08-01T05:19:36;94618.34;;;19.41;71.46
11268;BME280;49397;47.474;9.416;2023-08-01T05:22:01;94614.47;;;19.39;72.52
11268;BME280;49397;47.474;9.416;2023-08-01T05:24:27;94617.53;;;19.34;73.72
11268;BME280;49397;47.474;9.416;2023-08-01T05:26:52;94610.16;;;19.31;71.83
11268;BME280;49397;47.474;9.416;2023-08-01T05:29:18;94608.63;;;19.30;71.59
11268;BME280;49397;47.474;9.416;2023-08-01T05:31:43;94618.28;;;19.31;71.54
11268;BME280;49397;47.474;9.416;2023-08-01T05:34:08;94607.44;;;19.31;73.48
11268;BME280;49397;47.474;9.416;2023-08-01T05:36:34;94601.66;;;19.29;72.71
11268;BME280;49397;47.474;9.416;2023-08-01T05:38:59;94604.72;;;19.20;72.95
11268;BME280;49397;47.474;9.416;2023-08-01T05:41:24;94601.22;;;19.16;74.01
11268;BME280;49397;47.474;9.416;2023-08-01T05:43:50;94594.97;;;19.09;73.78
11268;BME280;49397;47.474;9.416;2023-08-01T05:46:15;94588.78;;;19.08;71.84
11268;BME280;49397;47.474;9.416;2023-08-01T05:48:41;94574.06;;;19.06;72.15
11268;BME280;49397;47.474;9.416;2023-08-01T05:51:07;94587.56;;;18.98;74.66
11268;BME280;49397;47.474;9.416;2023-08-01T05:53:32;94579.81;;;18.93;73.30
11268;BME280;49397;47.474;9.416;2023-08-01T05:55:57;94589.84;;;18.89;71.62
11268;BME280;49397;47.474;9.416;2023-08-01T05:58:23;94595.66;;;18.88;71.26
11268;BME280;49397;47.474;9.416;2023-08-01T06:00:48;94595.22;;;18.75;75.77
11268;BME280;49397;47.474;9.416;2023-08-01T06:03:14;94592.88;;;18.74;75.89
11268;BME280;49397;47.474;9.416;2023-08-01T06:05:39;94600.22;;;18.77;75.10
11268;BME280;49397;47.474;9.416;2023-08-01T06:08:08;94609.50;;;18.72;76.29
11268;BME280;49397;47.474;9.416;2023-08-01T06:10:34;94604.06;;;18.69;78.09
11268;BME280;49397;47.474;9.416;2023-08-01T06:13:00;94605.63;;;18.70;78.39
11268;BME280;49397;47.474;9.416;2023-08-01T06:15:25;94600.97;;;18.70;78.25
11268;BME280;49397;47.474;9.416;2023-08-01T06:17:51;94611.34;;;18.58;78.19
11268;BME280;49397;47.474;9.416;2023-08-01T06:20:16;94606.69;;;18.58;78.27
11268;BME280;49397;47.474;9.416;2023-08-01T06:22:42;94614.88;;;18.65;73.88
11268;BME280;49397;47.474;9.416;2023-08-01T06:25:08;94602.88;;;18.63;73.66
11268;BME280;49397;47.474;9.416;2023-08-01T06:27:33;94609.03;;;18.60;72.36
11268;BME280;49397;47.474;9.416;2023-08-01T06:29:59;94614.78;;;18.55;72.58
11268;BME280;49397;47.474;9.416;2023-08-01T06:32:24;94617.91;;;18.57;71.72
11268;BME280;49397;47.474;9.416;2023-08-01T06:34:50;94608.28;;;18.63;75.02
11268;BME280;49397;47.474;9.416;2023-08-01T06:37:15;94599.34;;;18.55;73.24
11268;BME280;49397;47.474;9.416;2023-08-01T06:39:40;94608.59;;;18.51;74.01
11268;BME280;49397;47.474;9.416;2023-08-01T06:42:06;94602.44;;;18.57;74.32
11268;BME280;49397;47.474;9.416;2023-08-01T06:44:31;94602.00;;;18.52;74.22
11268;BME280;49397;47.474;9.416;2023-08-01T06:46:57;94592.00;;;18.56;72.32
11268;BME280;49397;47.474;9.416;2023-08-01T06:49:22;94598.16;;;18.53;72.89
11268;BME280;49397;47.474;9.416;2023-08-01T06:51:47;94589.31;;;18.59;72.97
11268;BME280;49397;47.474;9.416;2023-08-01T06:54:13;94594.03;;;18.73;71.55
11268;BME280;49397;47.474;9.416;2023-08-01T06:56:38;94586.31;;;18.75;71.15
11268;BME280;49397;47.474;9.416;2023-08-01T06:59:03;94581.72;;;18.82;72.96
11268;BME280;49397;47.474;9.416;2023-08-01T07:01:29;94584.00;;;18.80;72.29
11268;BME280;49397;47.474;9.416;2023-08-01T07:03:55;94584.41;;;18.79;71.86
11268;BME280;49397;47.474;9.416;2023-08-01T07:06:22;94573.22;;;18.87;71.20
11268;BME280;49397;47.474;9.416;2023-08-01T07:08:48;94579.03;;;18.93;71.77
11268;BME280;49397;47.474;9.416;2023-08-01T07:11:14;94566.31;;;18.97;72.53
11268;BME280;49397;47.474;9.416;2023-08-01T07:13:39;94563.97;;;18.92;70.88
11268;BME280;49397;47.474;9.416;2023-08-01T07:16:04;94567.44;;;18.89;73.45
11268;BME280;49397;47.474;9.416;2023-08-01T07:18:30;94576.00;;;19.01;71.52
11268;BME280;49397;47.474;9.416;2023-08-01T07:21:02;94552.31;;;18.84;69.76
11268;BME280;49397;47.474;9.416;2023-08-01T07:23:28;94537.53;;;18.64;69.71
11268;BME280;49397;47.474;9.416;2023-08-01T07:25:54;94520.13;;;18.65;72.48
11268;BME280;49397;47.474;9.416;2023-08-01T07:28:19;94515.34;;;18.41;75.78
11268;BME280;49397;47.474;9.416;2023-08-01T07:30:44;94528.41;;;18.32;76.59
11268;BME280;49397;47.474;9.416;2023-08-01T07:33:10;94517.91;;;18.20;76.32
11268;BME280;49397;47.474;9.416;2023-08-01T07:35:35;94510.78;;;17.94;77.63
11268;BME280;49397;47.474;9.416;2023-08-01T07:38:00;94513.88;;;17.92;79.26
11268;BME280;49397;47.474;9.416;2023-08-01T07:40:26;94511.84;;;17.79;79.84
11268;BME280;49397;47.474;9.416;2023-08-01T07:42:51;94504.47;;;17.76;79.96
11268;BME280;49397;47.474;9.416;2023-08-01T07:45:17;94496.06;;;17.88;80.86
11268;BME280;49397;47.474;9.416;2023-08-01T07:47:42;94491.47;;;17.92;80.01
11268;BME280;49397;47.474;9.416;2023-08-01T07:50:08;94486.47;;;17.94;79.24
11268;BME280;49397;47.474;9.416;2023-08-01T07:52:33;94490.69;;;17.91;79.91
11268;BME280;49397;47.474;9.416;2023-08-01T07:54:59;94497.66;;;17.92;78.20
11268;BME280;49397;47.474;9.416;2023-08-01T07:57:24;94493.41;;;17.91;79.08
11268;BME280;49397;47.474;9.416;2023-08-01T07:59:50;94492.34;;;18.07;80.01
11268;BME280;49397;47.474;9.416;2023-08-01T08:02:15;94497.75;;;18.07;78.29
11268;BME280;49397;47.474;9.416;2023-08-01T08:04:40;94492.31;;;18.00;76.94
11268;BME280;49397;47.474;9.416;2023-08-01T08:07:06;94487.63;;;17.96;74.81
11268;BME280;49397;47.474;9.416;2023-08-01T08:09:31;94486.91;;;18.00;75.79
11268;BME280;49397;47.474;9.416;2023-08-01T08:11:57;94486.06;;;17.92;77.54
11268;BME280;49397;47.474;9.416;2023-08-01T08:14:25;94484.53;;;17.94;77.85
11268;BME280;49397;47.474;9.416;2023-08-01T08:16:51;94480.00;;;18.06;78.30
11268;BME280;49397;47.474;9.416;2023-08-01T08:19:16;94482.66;;;18.02;77.07
11268;BME280;49397;47.474;9.416;2023-08-01T08:21:42;94492.34;;;18.10;76.28
11268;BME280;49397;47.474;9.416;2023-08-01T08:24:07;94499.28;;;18.04;76.51
11268;BME280;49397;47.474;9.416;2023-08-01T08:26:32;94501.66;;;18.09;75.88
11268;BME280;49397;47.474;9.416;2023-08-01T08:29:02;94510.16;;;18.15;76.08
11268;BME280;49397;47.474;9.416;2023-08-01T08:31:28;94490.50;;;18.18;74.65
11268;BME280;49397;47.474;9.416;2023-08-01T08:33:53;94499.00;;;18.20;75.61
11268;BME280;49397;47.474;9.416;2023-08-01T08:36:18;94514.81;;;18.18;75.82
11268;BME280;49397;47.474;9.416;2023-08-01T08:38:44;94528.03;;;18.30;79.06
11268;BME280;49397;47.474;9.416;2023-08-01T08:41:30;94516.09;;;18.34;79.16
11268;BME280;49397;47.474;9.416;2023-08-01T08:43:59;94522.72;;;18.47;79.38
11268;BME280;49397;47.474;9.416;2023-08-01T08:46:28;94516.69;;;18.68;78.37
11268;BME280;49397;47.474;9.416;2023-08-01T08:48:59;94525.59;;;18.72;75.88
11268;BME280;49397;47.474;9.416;2023-08-01T08:51:26;94538.72;;;18.74;76.64
11268;BME280;49397;47.474;9.416;2023-08-01T08:53:53;94539.59;;;18.88;77.39
11268;BME280;49397;47.474;9.416;2023-08-01T08:56:19;94543.84;;;18.93;77.46
11268;BME280;49397;47.474;9.416;2023-08-01T08:58:45;94547.00;;;19.09;76.86
11268;BME280;49397;47.474;9.416;2023-08-01T09:01:12;94568.66;;;19.09;77.00
11268;BME280;49397;47.474;9.416;2023-08-01T09:03:38;94567.53;;;19.10;73.21
11268;BME280;49397;47.474;9.416;2023-08-01T09:06:14;94579.44;;;18.98;72.68
11268;BME280;49397;47.474;9.416;2023-08-01T09:08:46;94579.03;;;18.93;74.96
11268;BME280;49397;47.474;9.416;2023-08-01T09:11:15;94596.44;;;18.88;75.38
11268;BME280;49397;47.474;9.416;2023-08-01T09:13:40;94600.53;;;18.61;75.21
11268;BME280;49397;47.474;9.416;2023-08-01T09:16:06;94602.44;;;18.57;76.87
11268;BME280;49397;47.474;9.416;2023-08-01T09:18:32;94599.25;;;18.48;75.58
11268;BME280;49397;47.474;9.416;2023-08-01T09:20:58;94618.09;;;18.34;76.07
11268;BME280;49397;47.474;9.416;2023-08-01T09:23:27;94609.19;;;18.30;77.14
11268;BME280;49397;47.474;9.416;2023-08-01T09:25:52;94601.69;;;18.13;79.07
11268;BME280;49397;47.474;9.416;2023-08-01T09:28:24;94593.03;;;17.89;80.46
11268;BME280;49397;47.474;9.416;2023-08-01T09:30:51;94594.72;;;17.64;78.96
11268;BME280;49397;47.474;9.416;2023-08-01T09:33:17;94613.22;;;17.62;81.92
11268;BME280;49397;47.474;9.416;2023-08-01T09:35:43;94599.94;;;17.83;83.46
11268;BME280;49397;47.474;9.416;2023-08-01T09:38:14;94605.75;;;17.89;81.99
11268;BME280;49397;47.474;9.416;2023-08-01T09:40:41;94600.25;;;17.78;81.67
11268;BME280;49397;47.474;9.416;2023-08-01T09:43:07;94589.97;;;17.54;82.01
11268;BME280;49397;47.474;9.416;2023-08-01T09:45:32;94586.91;;;17.56;83.78
11268;BME280;49397;47.474;9.416;2023-08-01T09:47:59;94583.56;;;17.36;84.06
11268;BME280;49397;47.474;9.416;2023-08-01T09:50:25;94607.00;;;17.25;84.29
11268;BME280;49397;47.474;9.416;2023-08-01T09:52:51;94598.81;;;17.18;84.07
11268;BME280;49397;47.474;9.416;2023-08-01T09:55:32;94589.78;;;17.40;83.61
11268;BME280;49397;47.474;9.416;2023-08-01T09:57:58;94589.97;;;17.54;83.39
11268;BME280;49397;47.474;9.416;2023-08-01T10:00:28;94596.28;;;17.69;81.72
11268;BME280;49397;47.474;9.416;2023-08-01T10:02:59;94579.25;;;17.28;83.24
11268;BME280;49397;47.474;9.416;2023-08-01T10:05:32;94582.78;;;17.32;83.64
11268;BME280;49397;47.474;9.416;2023-08-01T10:07:59;94587.13;;;17.43;83.15
11268;BME280;49397;47.474;9.416;2023-08-01T10:10:26;94595.81;;;17.23;82.18
11268;BME280;49397;47.474;9.416;2023-08-01T10:12:54;94610.16;;;16.97;84.13
11268;BME280;49397;47.474;9.416;2023-08-01T10:15:20;94608.03;;;17.17;83.53
11268;BME280;49397;47.474;9.416;2023-08-01T10:17:45;94615.66;;;17.08;84.46
11268;BME280;49397;47.474;9.416;2023-08-01T10:20:11;94600.47;;;17.29;86.38
11268;BME280;49397;47.474;9.416;2023-08-01T10:22:38;94581.59;;;16.96;85.27
11268;BME280;49397;47.474;9.416;2023-08-01T10:25:05;94579.91;;;17.18;85.97
11268;BME280;49397;47.474;9.416;2023-08-01T10:27:31;94585.19;;;17.07;85.36
11268;BME280;49397;47.474;9.416;2023-08-01T10:29:58;94574.25;;;17.30;87.79
11268;BME280;49397;47.474;9.416;2023-08-01T10:32:33;94566.66;;;17.42;83.58
11268;BME280;49397;47.474;9.416;2023-08-01T10:34:59;94556.91;;;17.64;84.92
11268;BME280;49397;47.474;9.416;2023-08-01T10:37:25;94553.50;;;18.22;84.79
11268;BME280;49397;47.474;9.416;2023-08-01T10:39:59;94549.88;;;18.62;82.12
11268;BME280;49397;47.474;9.416;2023-08-01T10:42:24;94546.69;;;18.45;79.06
11268;BME280;49397;47.474;9.416;2023-08-01T10:44:50;94546.34;;;18.54;83.31
11268;BME280;49397;47.474;9.416;2023-08-01T10:47:25;94551.63;;;18.33;84.18
11268;BME280;49397;47.474;9.416;2023-08-01T10:49:54;94554.69;;;18.28;80.67
11268;BME280;49397;47.474;9.416;2023-08-01T10:52:21;94563.94;;;18.23;78.63
11268;BME280;49397;47.474;9.416;2023-08-01T10:54:56;94563.50;;;18.18;81.09
11268;BME280;49397;47.474;9.416;2023-08-01T10:57:23;94569.25;;;18.13;78.00
11268;BME280;49397;47.474;9.416;2023-08-01T10:59:49;94577.28;;;18.02;79.10
11268;BME280;49397;47.474;9.416;2023-08-01T11:02:20;94597.22;;;17.83;80.64
11268;BME280;49397;47.474;9.416;2023-08-01T11:05:06;94585.06;;;17.30;82.65
11268;BME280;49397;47.474;9.416;2023-08-01T11:07:33;94587.81;;;16.70;85.60
11268;BME280;49397;47.474;9.416;2023-08-01T11:10:09;94587.44;;;16.19;87.67
11268;BME280;49397;47.474;9.416;2023-08-01T11:12:39;94560.38;;;16.12;86.41
11268;BME280;49397;47.474;9.416;2023-08-01T11:15:07;94583.31;;;16.03;86.87
11268;BME280;49397;47.474;9.416;2023-08-01T11:17:34;94612.03;;;15.92;89.05
11268;BME280;49397;47.474;9.416;2023-08-01T11:20:07;94611.91;;;15.84;90.80
11268;BME280;49397;47.474;9.416;2023-08-01T11:22:37;94606.22;;;15.89;91.16
11268;BME280;49397;47.474;9.416;2023-08-01T11:25:03;94600.72;;;15.82;91.13
11268;BME280;49397;47.474;9.416;2023-08-01T11:27:29;94615.38;;;15.85;91.87
11268;BME280;49397;47.474;9.416;2023-08-01T11:29:55;94610.78;;;15.85;92.11
11268;BME280;49397;47.474;9.416;2023-08-01T11:32:21;94605.06;;;15.91;89.98
11268;BME280;49397;47.474;9.416;2023-08-01T11:34:48;94594.78;;;15.96;91.14
11268;BME280;49397;47.474;9.416;2023-08-01T11:37:18;94598.44;;;16.07;92.58
11268;BME280;49397;47.474;9.416;2023-08-01T11:39:46;94594.47;;;16.01;90.69
11268;BME280;49397;47.474;9.416;2023-08-01T11:42:16;94589.19;;;16.08;89.24
11268;BME280;49397;47.474;9.416;2023-08-01T11:44:43;94591.13;;;16.08;89.51
11268;BME280;49397;47.474;9.416;2023-08-01T11:47:13;94580.13;;;16.20;88.57
11268;BME280;49397;47.474;9.416;2023-08-01T11:49:38;94579.00;;;16.21;89.09
11268;BME280;49397;47.474;9.416;2023-08-01T11:52:04;94585.31;;;16.32;89.01
11268;BME280;49397;47.474;9.416;2023-08-01T11:54:29;94594.28;;;16.62;89.73
11268;BME280;49397;47.474;9.416;2023-08-01T11:57:00;94588.41;;;16.86;88.64
11268;BME280;49397;47.474;9.416;2023-08-01T11:59:26;94579.41;;;17.09;87.29
11268;BME280;49397;47.474;9.416;2023-08-01T12:01:51;94564.22;;;16.93;86.60
11268;BME280;49397;47.474;9.416;2023-08-01T12:04:27;94581.53;;;16.92;86.25
11268;BME280;49397;47.474;9.416;2023-08-01T12:06:53;94591.66;;;16.99;85.20
11268;BME280;49397;47.474;9.416;2023-08-01T12:09:19;94586.75;;;17.08;84.72
11268;BME280;49397;47.474;9.416;2023-08-01T12:11:45;94586.53;;;17.24;87.21
11268;BME280;49397;47.474;9.416;2023-08-01T12:14:13;94583.38;;;17.18;85.95
11268;BME280;49397;47.474;9.416;2023-08-01T12:16:41;94574.47;;;17.14;83.86
11268;BME280;49397;47.474;9.416;2023-08-01T12:19:08;94588.75;;;17.15;83.80
11268;BME280;49397;47.474;9.416;2023-08-01T12:21:34;94573.69;;;17.14;84.73
11268;BME280;49397;47.474;9.416;2023-08-01T12:24:00;94569.09;;;17.18;84.39
11268;BME280;49397;47.474;9.416;2023-08-01T12:26:25;94568.94;;;17.37;84.13
11268;BME280;49397;47.474;9.416;2023-08-01T12:28:51;94565.59;;;17.51;83.15
11268;BME280;49397;47.474;9.416;2023-08-01T12:31:17;94567.91;;;17.52;83.15
11268;BME280;49397;47.474;9.416;2023-08-01T12:33:46;94559.47;;;17.54;82.40
11268;BME280;49397;47.474;9.416;2023-08-01T12:36:15;94554.50;;;17.59;83.69
11268;BME280;49397;47.474;9.416;2023-08-01T12:38:41;94564.44;;;17.88;84.43
11268;BME280;49397;47.474;9.416;2023-08-01T12:41:07;94558.81;;;18.11;81.91
11268;BME280;49397;47.474;9.416;2023-08-01T12:43:32;94570.63;;;18.40;82.29
11268;BME280;49397;47.474;9.416;2023-08-01T12:45:58;94559.53;;;18.05;79.79
11268;BME280;49397;47.474;9.416;2023-08-01T12:48:26;94557.56;;;17.98;81.10
11268;BME280;49397;47.474;9.416;2023-08-01T12:50:52;94557.19;;;18.00;79.93
11268;BME280;49397;47.474;9.416;2023-08-01T12:53:18;94553.59;;;17.85;79.86
11268;BME280;49397;47.474;9.416;2023-08-01T12:55:44;94564.03;;;17.86;80.37